sensor_id;sensor_type;location;lat;lon;timestamp;P1;durP1;ratioP1;P2;durP2;ratioP2
56299;SDS011;42209;6.376;-10.782;2023-12-29T00:02:10;36.78;;;23.15;;
56299;SDS011;42209;6.376;-10.782;2023-12-29T00:04:39;32.10;;;22.60;;
56299;SDS011;42209;6.376;-10.782;2023-12-29T00:07:07;33.55;;;23.25;;
56299;SDS011;42209;6.376;-10.782;2023-12-29T00:09:35;38.63;;;25.15;;
56299;SDS011;42209;6.376;-10.782;2023-12-29T00:12:04;36.30;;;23.63;;
56299;SDS011;42209;6.376;-10.782;2023-12-29T00:14:32;33.92;;;24.17;;
56299;SDS011;42209;6.376;-10.782;2023-12-29T00:17:04;32.55;;;22.23;;
56299;SDS011;42209;6.376;-10.782;2023-12-29T00:19:32;32.03;;;23.33;;
56299;SDS011;42209;6.376;-10.782;2023-12-29T00:22:01;32.25;;;24.02;;
56299;SDS011;42209;6.376;-10.782;2023-12-29T00:24:30;33.45;;;23.25;;
56299;SDS011;42209;6.376;-10.782;2023-12-29T00:26:59;31.10;;;23.08;;
56299;SDS011;42209;6.376;-10.782;2023-12-29T00:29:27;36.67;;;24.13;;
56299;SDS011;42209;6.376;-10.782;2023-12-29T00:31:55;34.40;;;23.45;;
56299;SDS011;42209;6.376;-10.782;2023-12-29T00:34:24;34.30;;;22.83;;
56299;SDS011;42209;6.376;-10.782;2023-12-29T00:36:53;34.13;;;21.55;;
56299;SDS011;42209;6.376;-10.782;2023-12-29T00:41:50;30.95;;;22.45;;
56299;SDS011;42209;6.376;-10.782;2023-12-29T00:44:19;29.73;;;21.38;;
56299;SDS011;42209;6.376;-10.782;2023-12-29T00:49:15;35.88;;;22.40;;
56299;SDS011;42209;6.376;-10.782;2023-12-29T00:51:53;32.30;;;20.67;;
56299;SDS011;42209;6.376;-10.782;2023-12-29T00:54:21;29.67;;;22.80;;
56299;SDS011;42209;6.376;-10.782;2023-12-29T00:56:54;29.10;;;21.60;;
56299;SDS011;42209;6.376;-10.782;2023-12-29T01:01:50;32.33;;;22.52;;
56299;SDS011;42209;6.376;-10.782;2023-12-29T01:04:19;31.45;;;21.67;;
56299;SDS011;42209;6.376;-10.782;2023-12-29T01:06:48;31.05;;;22.42;;
56299;SDS011;42209;6.376;-10.782;2023-12-29T01:09:16;28.52;;;20.30;;
56299;SDS011;42209;6.376;-10.782;2023-12-29T01:11:45;30.35;;;21.45;;
56299;SDS011;42209;6.376;-10.782;2023-12-29T01:16:41;28.35;;;19.58;;
56299;SDS011;42209;6.376;-10.782;2023-12-29T01:19:10;27.38;;;19.77;;
56299;SDS011;42209;6.376;-10.782;2023-12-29T01:21:38;28.45;;;21.20;;
56299;SDS011;42209;6.376;-10.782;2023-12-29T01:24:07;24.58;;;18.85;;
56299;SDS011;42209;6.376;-10.782;2023-12-29T01:26:38;28.00;;;20.98;;
56299;SDS011;42209;6.376;-10.782;2023-12-29T01:29:07;26.77;;;19.58;;
56299;SDS011;42209;6.376;-10.782;2023-12-29T01:31:35;26.58;;;20.30;;
56299;SDS011;42209;6.376;-10.782;2023-12-29T01:34:03;26.52;;;19.25;;
56299;SDS011;42209;6.376;-10.782;2023-12-29T01:39:00;30.35;;;22.23;;
56299;SDS011;42209;6.376;-10.782;2023-12-29T01:41:29;29.13;;;21.60;;
56299;SDS011;42209;6.376;-10.782;2023-12-29T01:46:33;28.70;;;21.25;;
56299;SDS011;42209;6.376;-10.782;2023-12-29T01:49:02;24.23;;;19.98;;
56299;SDS011;42209;6.376;-10.782;2023-12-29T01:51:31;24.98;;;18.65;;
56299;SDS011;42209;6.376;-10.782;2023-12-29T01:54:00;27.45;;;19.52;;
56299;SDS011;42209;6.376;-10.782;2023-12-29T01:56:29;26.30;;;20.10;;
56299;SDS011;42209;6.376;-10.782;2023-12-29T01:58:58;27.73;;;20.40;;
56299;SDS011;42209;6.376;-10.782;2023-12-29T02:01:37;26.88;;;21.33;;
56299;SDS011;42209;6.376;-10.782;2023-12-29T02:04:06;24.02;;;19.77;;
56299;SDS011;42209;6.376;-10.782;2023-12-29T02:06:35;25.33;;;18.90;;
56299;SDS011;42209;6.376;-10.782;2023-12-29T02:09:05;26.27;;;20.00;;
56299;SDS011;42209;6.376;-10.782;2023-12-29T02:14:01;30.77;;;20.02;;
56299;SDS011;42209;6.376;-10.782;2023-12-29T02:18:58;27.85;;;19.23;;
56299;SDS011;42209;6.376;-10.782;2023-12-29T02:21:29;24.50;;;18.15;;
56299;SDS011;42209;6.376;-10.782;2023-12-29T02:23:57;23.30;;;17.63;;
56299;SDS011;42209;6.376;-10.782;2023-12-29T02:26:25;25.60;;;18.65;;
56299;SDS011;42209;6.376;-10.782;2023-12-29T02:29:01;21.98;;;17.55;;
56299;SDS011;42209;6.376;-10.782;2023-12-29T02:31:31;24.48;;;17.98;;
56299;SDS011;42209;6.376;-10.782;2023-12-29T02:34:02;21.13;;;17.23;;
56299;SDS011;42209;6.376;-10.782;2023-12-29T02:36:32;21.35;;;17.75;;
56299;SDS011;42209;6.376;-10.782;2023-12-29T02:39:01;25.05;;;17.38;;
56299;SDS011;42209;6.376;-10.782;2023-12-29T02:41:30;21.88;;;15.18;;
56299;SDS011;42209;6.376;-10.782;2023-12-29T02:44:00;22.58;;;17.10;;
56299;SDS011;42209;6.376;-10.782;2023-12-29T02:46:28;27.23;;;18.83;;
56299;SDS011;42209;6.376;-10.782;2023-12-29T02:48:56;24.27;;;17.35;;
56299;SDS011;42209;6.376;-10.782;2023-12-29T02:51:25;23.48;;;16.83;;
56299;SDS011;42209;6.376;-10.782;2023-12-29T02:53:54;23.05;;;17.15;;
56299;SDS011;42209;6.376;-10.782;2023-12-29T02:56:23;23.73;;;17.35;;
56299;SDS011;42209;6.376;-10.782;2023-12-29T02:58:52;23.35;;;15.70;;
56299;SDS011;42209;6.376;-10.782;2023-12-29T03:01:20;21.85;;;16.55;;
56299;SDS011;42209;6.376;-10.782;2023-12-29T03:03:49;23.38;;;15.52;;
56299;SDS011;42209;6.376;-10.782;2023-12-29T03:08:46;23.30;;;16.42;;
56299;SDS011;42209;6.376;-10.782;2023-12-29T03:11:14;21.10;;;16.48;;
56299;SDS011;42209;6.376;-10.782;2023-12-29T03:13:42;20.42;;;16.35;;
56299;SDS011;42209;6.376;-10.782;2023-12-29T03:16:11;23.05;;;17.15;;
56299;SDS011;42209;6.376;-10.782;2023-12-29T03:18:39;21.58;;;15.65;;
56299;SDS011;42209;6.376;-10.782;2023-12-29T03:21:08;20.30;;;15.13;;
56299;SDS011;42209;6.376;-10.782;2023-12-29T03:23:36;17.92;;;15.10;;
56299;SDS011;42209;6.376;-10.782;2023-12-29T03:26:05;22.92;;;15.77;;
56299;SDS011;42209;6.376;-10.782;2023-12-29T03:28:33;20.25;;;15.05;;
56299;SDS011;42209;6.376;-10.782;2023-12-29T03:31:01;19.20;;;15.68;;
56299;SDS011;42209;6.376;-10.782;2023-12-29T03:33:30;20.92;;;14.93;;
56299;SDS011;42209;6.376;-10.782;2023-12-29T03:35:58;23.83;;;15.57;;
56299;SDS011;42209;6.376;-10.782;2023-12-29T03:38:27;20.17;;;14.57;;
56299;SDS011;42209;6.376;-10.782;2023-12-29T03:40:55;21.50;;;15.60;;
56299;SDS011;42209;6.376;-10.782;2023-12-29T03:43:23;19.88;;;14.15;;
56299;SDS011;42209;6.376;-10.782;2023-12-29T03:45:53;19.80;;;15.32;;
56299;SDS011;42209;6.376;-10.782;2023-12-29T03:48:23;18.70;;;14.50;;
56299;SDS011;42209;6.376;-10.782;2023-12-29T03:50:52;17.77;;;13.77;;
56299;SDS011;42209;6.376;-10.782;2023-12-29T03:53:22;16.88;;;13.90;;
56299;SDS011;42209;6.376;-10.782;2023-12-29T03:55:50;20.00;;;14.80;;
56299;SDS011;42209;6.376;-10.782;2023-12-29T03:58:20;18.55;;;14.70;;
56299;SDS011;42209;6.376;-10.782;2023-12-29T04:00:48;20.35;;;14.55;;
56299;SDS011;42209;6.376;-10.782;2023-12-29T04:03:16;18.02;;;13.35;;
56299;SDS011;42209;6.376;-10.782;2023-12-29T04:05:45;16.33;;;13.82;;
56299;SDS011;42209;6.376;-10.782;2023-12-29T04:08:13;20.50;;;15.05;;
56299;SDS011;42209;6.376;-10.782;2023-12-29T04:10:42;16.23;;;13.40;;
56299;SDS011;42209;6.376;-10.782;2023-12-29T04:15:38;20.27;;;13.48;;
56299;SDS011;42209;6.376;-10.782;2023-12-29T04:18:07;15.75;;;12.13;;
56299;SDS011;42209;6.376;-10.782;2023-12-29T04:23:05;16.48;;;12.40;;
56299;SDS011;42209;6.376;-10.782;2023-12-29T04:25:34;15.88;;;13.93;;
56299;SDS011;42209;6.376;-10.782;2023-12-29T04:28:04;19.35;;;14.18;;
56299;SDS011;42209;6.376;-10.782;2023-12-29T04:30:34;17.63;;;12.00;;
56299;SDS011;42209;6.376;-10.782;2023-12-29T04:35:30;14.43;;;12.38;;
56299;SDS011;42209;6.376;-10.782;2023-12-29T04:37:59;17.35;;;12.50;;
56299;SDS011;42209;6.376;-10.782;2023-12-29T04:42:55;15.27;;;12.45;;
56299;SDS011;42209;6.376;-10.782;2023-12-29T04:45:24;17.60;;;12.65;;
56299;SDS011;42209;6.376;-10.782;2023-12-29T04:47:52;14.38;;;11.93;;
56299;SDS011;42209;6.376;-10.782;2023-12-29T04:50:21;14.90;;;12.32;;
56299;SDS011;42209;6.376;-10.782;2023-12-29T04:52:49;13.57;;;10.80;;
56299;SDS011;42209;6.376;-10.782;2023-12-29T04:55:17;15.27;;;12.18;;
56299;SDS011;42209;6.376;-10.782;2023-12-29T04:57:46;16.85;;;12.90;;
56299;SDS011;42209;6.376;-10.782;2023-12-29T05:00:15;16.13;;;12.55;;
56299;SDS011;42209;6.376;-10.782;2023-12-29T05:02:43;17.80;;;12.55;;
56299;SDS011;42209;6.376;-10.782;2023-12-29T05:05:11;13.95;;;11.63;;
56299;SDS011;42209;6.376;-10.782;2023-12-29T05:07:40;14.68;;;11.30;;
56299;SDS011;42209;6.376;-10.782;2023-12-29T05:10:08;13.75;;;10.20;;
56299;SDS011;42209;6.376;-10.782;2023-12-29T05:15:05;16.83;;;11.85;;
56299;SDS011;42209;6.376;-10.782;2023-12-29T05:17:37;15.07;;;11.40;;
56299;SDS011;42209;6.376;-10.782;2023-12-29T05:20:08;13.38;;;11.80;;
56299;SDS011;42209;6.376;-10.782;2023-12-29T05:22:37;16.25;;;11.90;;
56299;SDS011;42209;6.376;-10.782;2023-12-29T05:25:06;15.40;;;11.20;;
56299;SDS011;42209;6.376;-10.782;2023-12-29T05:27:35;13.82;;;11.38;;
56299;SDS011;42209;6.376;-10.782;2023-12-29T05:30:05;15.00;;;10.73;;
56299;SDS011;42209;6.376;-10.782;2023-12-29T05:32:34;15.13;;;10.80;;
56299;SDS011;42209;6.376;-10.782;2023-12-29T05:35:04;13.82;;;11.40;;
56299;SDS011;42209;6.376;-10.782;2023-12-29T05:37:33;15.43;;;12.02;;
56299;SDS011;42209;6.376;-10.782;2023-12-29T05:40:01;14.27;;;10.52;;
56299;SDS011;42209;6.376;-10.782;2023-12-29T05:42:30;13.73;;;11.18;;
56299;SDS011;42209;6.376;-10.782;2023-12-29T05:45:01;14.93;;;10.52;;
56299;SDS011;42209;6.376;-10.782;2023-12-29T05:47:30;12.98;;;10.18;;
56299;SDS011;42209;6.376;-10.782;2023-12-29T05:49:58;13.80;;;11.05;;
56299;SDS011;42209;6.376;-10.782;2023-12-29T05:52:27;14.48;;;10.35;;
56299;SDS011;42209;6.376;-10.782;2023-12-29T05:54:55;14.57;;;11.43;;
56299;SDS011;42209;6.376;-10.782;2023-12-29T05:57:24;12.55;;;10.15;;
56299;SDS011;42209;6.376;-10.782;2023-12-29T05:59:52;12.90;;;10.73;;
56299;SDS011;42209;6.376;-10.782;2023-12-29T06:02:20;13.95;;;10.68;;
56299;SDS011;42209;6.376;-10.782;2023-12-29T06:04:49;15.43;;;10.35;;
56299;SDS011;42209;6.376;-10.782;2023-12-29T06:07:17;14.32;;;10.20;;
56299;SDS011;42209;6.376;-10.782;2023-12-29T06:09:46;11.23;;;9.65;;
56299;SDS011;42209;6.376;-10.782;2023-12-29T06:12:14;12.32;;;10.25;;
56299;SDS011;42209;6.376;-10.782;2023-12-29T06:14:42;11.07;;;9.88;;
56299;SDS011;42209;6.376;-10.782;2023-12-29T06:17:11;14.07;;;10.00;;
56299;SDS011;42209;6.376;-10.782;2023-12-29T06:19:39;11.48;;;9.18;;
56299;SDS011;42209;6.376;-10.782;2023-12-29T06:22:07;11.00;;;9.23;;
56299;SDS011;42209;6.376;-10.782;2023-12-29T06:24:36;12.98;;;10.43;;
56299;SDS011;42209;6.376;-10.782;2023-12-29T06:29:33;12.48;;;9.75;;
56299;SDS011;42209;6.376;-10.782;2023-12-29T06:34:30;11.55;;;9.60;;
56299;SDS011;42209;6.376;-10.782;2023-12-29T06:36:59;9.95;;;8.80;;
56299;SDS011;42209;6.376;-10.782;2023-12-29T06:39:27;11.48;;;8.77;;
56299;SDS011;42209;6.376;-10.782;2023-12-29T06:41:55;12.18;;;9.32;;
56299;SDS011;42209;6.376;-10.782;2023-12-29T06:44:24;13.32;;;9.25;;
56299;SDS011;42209;6.376;-10.782;2023-12-29T06:46:52;10.68;;;9.52;;
56299;SDS011;42209;6.376;-10.782;2023-12-29T06:49:20;11.57;;;9.35;;
56299;SDS011;42209;6.376;-10.782;2023-12-29T06:51:49;10.43;;;9.05;;
56299;SDS011;42209;6.376;-10.782;2023-12-29T06:54:19;11.30;;;9.35;;
56299;SDS011;42209;6.376;-10.782;2023-12-29T06:56:47;10.35;;;8.00;;
56299;SDS011;42209;6.376;-10.782;2023-12-29T06:59:15;11.50;;;8.90;;
56299;SDS011;42209;6.376;-10.782;2023-12-29T07:01:44;11.10;;;9.00;;
56299;SDS011;42209;6.376;-10.782;2023-12-29T07:04:12;10.27;;;8.98;;
56299;SDS011;42209;6.376;-10.782;2023-12-29T07:09:09;13.18;;;10.43;;
56299;SDS011;42209;6.376;-10.782;2023-12-29T07:14:05;19.58;;;13.88;;
56299;SDS011;42209;6.376;-10.782;2023-12-29T07:16:34;18.27;;;11.77;;
56299;SDS011;42209;6.376;-10.782;2023-12-29T07:19:02;18.45;;;14.38;;
56299;SDS011;42209;6.376;-10.782;2023-12-29T07:21:31;21.67;;;14.35;;
56299;SDS011;42209;6.376;-10.782;2023-12-29T07:23:59;19.80;;;13.73;;
56299;SDS011;42209;6.376;-10.782;2023-12-29T07:26:27;19.90;;;14.35;;
56299;SDS011;42209;6.376;-10.782;2023-12-29T07:28:56;18.50;;;14.38;;
56299;SDS011;42209;6.376;-10.782;2023-12-29T07:31:24;22.08;;;15.57;;
56299;SDS011;42209;6.376;-10.782;2023-12-29T07:33:53;23.55;;;16.17;;
56299;SDS011;42209;6.376;-10.782;2023-12-29T07:38:50;19.35;;;13.50;;
56299;SDS011;42209;6.376;-10.782;2023-12-29T07:41:18;20.20;;;14.75;;
56299;SDS011;42209;6.376;-10.782;2023-12-29T07:43:46;22.15;;;13.60;;
56299;SDS011;42209;6.376;-10.782;2023-12-29T07:46:23;17.83;;;13.27;;
56299;SDS011;42209;6.376;-10.782;2023-12-29T07:48:54;19.33;;;13.65;;
56299;SDS011;42209;6.376;-10.782;2023-12-29T07:51:23;20.75;;;13.70;;
56299;SDS011;42209;6.376;-10.782;2023-12-29T07:53:55;20.20;;;12.95;;
56299;SDS011;42209;6.376;-10.782;2023-12-29T07:56:24;15.95;;;11.80;;
56299;SDS011;42209;6.376;-10.782;2023-12-29T07:58:52;23.50;;;13.07;;
56299;SDS011;42209;6.376;-10.782;2023-12-29T08:01:20;18.77;;;12.27;;
56299;SDS011;42209;6.376;-10.782;2023-12-29T08:03:49;14.15;;;12.07;;
56299;SDS011;42209;6.376;-10.782;2023-12-29T08:06:17;17.63;;;12.13;;
56299;SDS011;42209;6.376;-10.782;2023-12-29T08:08:46;17.83;;;12.43;;
56299;SDS011;42209;6.376;-10.782;2023-12-29T08:11:16;21.45;;;11.73;;
56299;SDS011;42209;6.376;-10.782;2023-12-29T08:13:46;21.92;;;12.68;;
56299;SDS011;42209;6.376;-10.782;2023-12-29T08:16:15;21.98;;;12.65;;
56299;SDS011;42209;6.376;-10.782;2023-12-29T08:18:44;17.70;;;10.93;;
56299;SDS011;42209;6.376;-10.782;2023-12-29T08:21:17;17.63;;;12.50;;
56299;SDS011;42209;6.376;-10.782;2023-12-29T08:23:46;17.73;;;12.13;;
56299;SDS011;42209;6.376;-10.782;2023-12-29T08:26:15;18.95;;;12.82;;
56299;SDS011;42209;6.376;-10.782;2023-12-29T08:28:43;19.73;;;12.52;;
56299;SDS011;42209;6.376;-10.782;2023-12-29T08:31:12;23.13;;;12.73;;
56299;SDS011;42209;6.376;-10.782;2023-12-29T08:33:42;22.23;;;12.93;;
56299;SDS011;42209;6.376;-10.782;2023-12-29T08:36:11;15.73;;;11.05;;
56299;SDS011;42209;6.376;-10.782;2023-12-29T08:38:39;16.33;;;11.73;;
56299;SDS011;42209;6.376;-10.782;2023-12-29T08:41:08;15.73;;;10.40;;
56299;SDS011;42209;6.376;-10.782;2023-12-29T08:43:36;15.57;;;10.85;;
56299;SDS011;42209;6.376;-10.782;2023-12-29T08:46:05;16.42;;;11.75;;
56299;SDS011;42209;6.376;-10.782;2023-12-29T08:48:33;16.73;;;11.52;;
56299;SDS011;42209;6.376;-10.782;2023-12-29T08:53:30;19.75;;;11.55;;
56299;SDS011;42209;6.376;-10.782;2023-12-29T08:55:59;21.08;;;11.13;;
56299;SDS011;42209;6.376;-10.782;2023-12-29T08:58:27;20.65;;;12.05;;
56299;SDS011;42209;6.376;-10.782;2023-12-29T09:00:56;14.68;;;10.57;;
56299;SDS011;42209;6.376;-10.782;2023-12-29T09:05:53;17.52;;;11.20;;
56299;SDS011;42209;6.376;-10.782;2023-12-29T09:08:23;12.93;;;10.00;;
56299;SDS011;42209;6.376;-10.782;2023-12-29T09:13:19;17.50;;;11.15;;
56299;SDS011;42209;6.376;-10.782;2023-12-29T09:15:48;16.92;;;9.82;;
56299;SDS011;42209;6.376;-10.782;2023-12-29T09:18:17;12.75;;;9.52;;
56299;SDS011;42209;6.376;-10.782;2023-12-29T09:20:45;15.23;;;10.02;;
56299;SDS011;42209;6.376;-10.782;2023-12-29T09:23:13;12.27;;;9.82;;
56299;SDS011;42209;6.376;-10.782;2023-12-29T09:25:42;12.10;;;9.65;;
56299;SDS011;42209;6.376;-10.782;2023-12-29T09:28:11;13.82;;;9.65;;
56299;SDS011;42209;6.376;-10.782;2023-12-29T09:30:39;11.38;;;9.88;;
56299;SDS011;42209;6.376;-10.782;2023-12-29T09:35:36;12.45;;;10.40;;
56299;SDS011;42209;6.376;-10.782;2023-12-29T09:38:04;9.75;;;8.48;;
56299;SDS011;42209;6.376;-10.782;2023-12-29T09:40:33;13.77;;;8.95;;
56299;SDS011;42209;6.376;-10.782;2023-12-29T09:43:02;11.90;;;9.30;;
56299;SDS011;42209;6.376;-10.782;2023-12-29T09:45:31;12.75;;;8.98;;
56299;SDS011;42209;6.376;-10.782;2023-12-29T09:48:02;12.70;;;8.68;;
56299;SDS011;42209;6.376;-10.782;2023-12-29T09:50:34;10.18;;;9.07;;
56299;SDS011;42209;6.376;-10.782;2023-12-29T09:53:03;10.90;;;9.15;;
56299;SDS011;42209;6.376;-10.782;2023-12-29T09:55:33;13.45;;;10.27;;
56299;SDS011;42209;6.376;-10.782;2023-12-29T09:58:02;11.57;;;9.15;;
56299;SDS011;42209;6.376;-10.782;2023-12-29T10:00:32;12.68;;;8.90;;
56299;SDS011;42209;6.376;-10.782;2023-12-29T10:03:02;16.38;;;9.60;;
56299;SDS011;42209;6.376;-10.782;2023-12-29T10:05:31;14.30;;;9.85;;
56299;SDS011;42209;6.376;-10.782;2023-12-29T10:08:01;10.98;;;8.30;;
56299;SDS011;42209;6.376;-10.782;2023-12-29T10:10:30;10.70;;;8.25;;
56299;SDS011;42209;6.376;-10.782;2023-12-29T10:13:00;10.40;;;8.68;;
56299;SDS011;42209;6.376;-10.782;2023-12-29T10:15:34;9.90;;;8.63;;
56299;SDS011;42209;6.376;-10.782;2023-12-29T10:23:40;12.85;;;9.10;;
56299;SDS011;42209;6.376;-10.782;2023-12-29T10:26:10;10.15;;;9.15;;
56299;SDS011;42209;6.376;-10.782;2023-12-29T10:28:39;11.77;;;8.50;;
56299;SDS011;42209;6.376;-10.782;2023-12-29T10:31:09;9.73;;;8.38;;
56299;SDS011;42209;6.376;-10.782;2023-12-29T10:33:42;11.77;;;9.30;;
56299;SDS011;42209;6.376;-10.782;2023-12-29T10:38:39;10.73;;;9.20;;
56299;SDS011;42209;6.376;-10.782;2023-12-29T10:43:43;11.85;;;8.35;;
56299;SDS011;42209;6.376;-10.782;2023-12-29T10:46:13;11.57;;;8.65;;
56299;SDS011;42209;6.376;-10.782;2023-12-29T10:48:41;10.05;;;8.98;;
56299;SDS011;42209;6.376;-10.782;2023-12-29T10:53:38;14.18;;;9.85;;
56299;SDS011;42209;6.376;-10.782;2023-12-29T10:56:26;10.27;;;9.27;;
56299;SDS011;42209;6.376;-10.782;2023-12-29T10:58:59;13.60;;;8.70;;
56299;SDS011;42209;6.376;-10.782;2023-12-29T11:01:34;13.63;;;9.23;;
56299;SDS011;42209;6.376;-10.782;2023-12-29T11:04:04;12.70;;;9.40;;
56299;SDS011;42209;6.376;-10.782;2023-12-29T11:06:43;10.45;;;9.32;;
56299;SDS011;42209;6.376;-10.782;2023-12-29T11:11:40;12.77;;;8.48;;
56299;SDS011;42209;6.376;-10.782;2023-12-29T11:14:10;12.23;;;8.90;;
56299;SDS011;42209;6.376;-10.782;2023-12-29T11:16:40;17.83;;;10.15;;
56299;SDS011;42209;6.376;-10.782;2023-12-29T11:19:10;14.20;;;9.50;;
56299;SDS011;42209;6.376;-10.782;2023-12-29T11:21:40;13.18;;;8.65;;
56299;SDS011;42209;6.376;-10.782;2023-12-29T11:24:11;12.85;;;8.88;;
56299;SDS011;42209;6.376;-10.782;2023-12-29T11:26:48;17.75;;;9.95;;
56299;SDS011;42209;6.376;-10.782;2023-12-29T11:29:17;12.85;;;10.18;;
56299;SDS011;42209;6.376;-10.782;2023-12-29T11:31:46;14.32;;;9.77;;
56299;SDS011;42209;6.376;-10.782;2023-12-29T11:34:25;14.20;;;9.35;;
56299;SDS011;42209;6.376;-10.782;2023-12-29T11:37:36;15.02;;;9.38;;
56299;SDS011;42209;6.376;-10.782;2023-12-29T11:42:38;14.73;;;10.13;;
56299;SDS011;42209;6.376;-10.782;2023-12-29T11:47:56;15.70;;;10.10;;
56299;SDS011;42209;6.376;-10.782;2023-12-29T11:50:58;10.70;;;9.52;;
56299;SDS011;42209;6.376;-10.782;2023-12-29T11:53:30;12.38;;;9.55;;
56299;SDS011;42209;6.376;-10.782;2023-12-29T11:55:59;14.00;;;9.30;;
56299;SDS011;42209;6.376;-10.782;2023-12-29T11:58:28;14.88;;;9.82;;
56299;SDS011;42209;6.376;-10.782;2023-12-29T12:00:56;13.05;;;9.85;;
56299;SDS011;42209;6.376;-10.782;2023-12-29T12:03:26;12.68;;;9.25;;
56299;SDS011;42209;6.376;-10.782;2023-12-29T12:05:55;16.65;;;9.95;;
56299;SDS011;42209;6.376;-10.782;2023-12-29T12:10:57;14.82;;;9.85;;
56299;SDS011;42209;6.376;-10.782;2023-12-29T12:13:46;14.90;;;9.65;;
56299;SDS011;42209;6.376;-10.782;2023-12-29T12:17:00;13.85;;;9.40;;
56299;SDS011;42209;6.376;-10.782;2023-12-29T12:19:13;13.70;;;9.77;;
56299;SDS011;42209;6.376;-10.782;2023-12-29T12:21:42;15.30;;;9.63;;
56299;SDS011;42209;6.376;-10.782;2023-12-29T12:24:14;15.25;;;10.68;;
56299;SDS011;42209;6.376;-10.782;2023-12-29T12:26:45;12.75;;;10.63;;
56299;SDS011;42209;6.376;-10.782;2023-12-29T12:29:14;17.25;;;10.32;;
56299;SDS011;42209;6.376;-10.782;2023-12-29T12:31:52;12.40;;;10.30;;
56299;SDS011;42209;6.376;-10.782;2023-12-29T12:34:20;12.45;;;9.85;;
56299;SDS011;42209;6.376;-10.782;2023-12-29T12:36:52;12.85;;;10.07;;
56299;SDS011;42209;6.376;-10.782;2023-12-29T12:39:21;15.25;;;10.82;;
56299;SDS011;42209;6.376;-10.782;2023-12-29T12:44:18;16.58;;;10.10;;
56299;SDS011;42209;6.376;-10.782;2023-12-29T12:49:15;16.50;;;11.02;;
56299;SDS011;42209;6.376;-10.782;2023-12-29T12:51:44;14.38;;;10.73;;
56299;SDS011;42209;6.376;-10.782;2023-12-29T12:54:14;19.25;;;11.85;;
56299;SDS011;42209;6.376;-10.782;2023-12-29T12:56:46;12.95;;;10.60;;
56299;SDS011;42209;6.376;-10.782;2023-12-29T12:59:15;15.93;;;11.35;;
56299;SDS011;42209;6.376;-10.782;2023-12-29T13:01:44;13.98;;;10.02;;
56299;SDS011;42209;6.376;-10.782;2023-12-29T13:04:13;15.82;;;11.18;;
56299;SDS011;42209;6.376;-10.782;2023-12-29T13:06:42;16.52;;;10.90;;
56299;SDS011;42209;6.376;-10.782;2023-12-29T13:09:15;17.05;;;11.13;;
56299;SDS011;42209;6.376;-10.782;2023-12-29T13:11:45;15.85;;;10.40;;
56299;SDS011;42209;6.376;-10.782;2023-12-29T13:14:23;18.42;;;10.63;;
56299;SDS011;42209;6.376;-10.782;2023-12-29T13:16:51;18.30;;;10.68;;
56299;SDS011;42209;6.376;-10.782;2023-12-29T13:19:21;13.98;;;10.82;;
56299;SDS011;42209;6.376;-10.782;2023-12-29T13:21:51;17.45;;;11.25;;
56299;SDS011;42209;6.376;-10.782;2023-12-29T13:24:22;17.35;;;10.15;;
56299;SDS011;42209;6.376;-10.782;2023-12-29T13:26:51;16.33;;;11.13;;
56299;SDS011;42209;6.376;-10.782;2023-12-29T13:29:25;16.33;;;11.00;;
56299;SDS011;42209;6.376;-10.782;2023-12-29T13:31:54;16.90;;;11.63;;
56299;SDS011;42209;6.376;-10.782;2023-12-29T13:34:35;18.30;;;12.48;;
56299;SDS011;42209;6.376;-10.782;2023-12-29T13:42:22;17.65;;;11.60;;
56299;SDS011;42209;6.376;-10.782;2023-12-29T13:44:54;16.80;;;10.95;;
56299;SDS011;42209;6.376;-10.782;2023-12-29T13:47:24;15.00;;;11.75;;
56299;SDS011;42209;6.376;-10.782;2023-12-29T13:49:53;15.13;;;10.82;;
56299;SDS011;42209;6.376;-10.782;2023-12-29T13:54:50;19.23;;;9.90;;
56299;SDS011;42209;6.376;-10.782;2023-12-29T13:57:29;14.90;;;12.50;;
56299;SDS011;42209;6.376;-10.782;2023-12-29T14:00:13;16.35;;;11.35;;
56299;SDS011;42209;6.376;-10.782;2023-12-29T14:02:47;17.83;;;10.73;;
56299;SDS011;42209;6.376;-10.782;2023-12-29T14:05:30;14.82;;;10.95;;
56299;SDS011;42209;6.376;-10.782;2023-12-29T14:10:31;16.20;;;11.70;;
56299;SDS011;42209;6.376;-10.782;2023-12-29T14:13:07;21.80;;;11.05;;
56299;SDS011;42209;6.376;-10.782;2023-12-29T14:15:41;14.52;;;10.32;;
56299;SDS011;42209;6.376;-10.782;2023-12-29T14:21:00;15.55;;;11.07;;
56299;SDS011;42209;6.376;-10.782;2023-12-29T14:23:29;19.63;;;12.00;;
56299;SDS011;42209;6.376;-10.782;2023-12-29T14:26:03;17.38;;;10.55;;
56299;SDS011;42209;6.376;-10.782;2023-12-29T14:28:32;18.45;;;11.18;;
56299;SDS011;42209;6.376;-10.782;2023-12-29T14:31:01;19.73;;;12.57;;
56299;SDS011;42209;6.376;-10.782;2023-12-29T14:33:30;15.30;;;11.63;;
56299;SDS011;42209;6.376;-10.782;2023-12-29T14:38:26;24.48;;;14.07;;
56299;SDS011;42209;6.376;-10.782;2023-12-29T14:40:55;21.05;;;13.18;;
56299;SDS011;42209;6.376;-10.782;2023-12-29T14:43:23;30.02;;;14.07;;
56299;SDS011;42209;6.376;-10.782;2023-12-29T14:45:51;28.13;;;15.23;;
56299;SDS011;42209;6.376;-10.782;2023-12-29T14:48:21;29.25;;;16.45;;
56299;SDS011;42209;6.376;-10.782;2023-12-29T14:50:50;25.27;;;16.05;;
56299;SDS011;42209;6.376;-10.782;2023-12-29T14:53:18;31.73;;;18.02;;
56299;SDS011;42209;6.376;-10.782;2023-12-29T14:55:46;30.25;;;19.35;;
56299;SDS011;42209;6.376;-10.782;2023-12-29T14:58:15;32.10;;;19.15;;
56299;SDS011;42209;6.376;-10.782;2023-12-29T15:00:43;31.55;;;18.50;;
56299;SDS011;42209;6.376;-10.782;2023-12-29T15:03:12;33.10;;;19.83;;
56299;SDS011;42209;6.376;-10.782;2023-12-29T15:05:42;30.42;;;18.48;;
56299;SDS011;42209;6.376;-10.782;2023-12-29T15:08:13;30.27;;;17.55;;
56299;SDS011;42209;6.376;-10.782;2023-12-29T15:10:41;30.55;;;19.17;;
56299;SDS011;42209;6.376;-10.782;2023-12-29T15:13:10;38.38;;;19.77;;
56299;SDS011;42209;6.376;-10.782;2023-12-29T15:18:06;32.55;;;18.17;;
56299;SDS011;42209;6.376;-10.782;2023-12-29T15:20:35;36.83;;;18.60;;
56299;SDS011;42209;6.376;-10.782;2023-12-29T15:23:03;28.08;;;18.08;;
56299;SDS011;42209;6.376;-10.782;2023-12-29T15:25:32;36.15;;;19.10;;
56299;SDS011;42209;6.376;-10.782;2023-12-29T15:28:00;35.90;;;19.65;;
56299;SDS011;42209;6.376;-10.782;2023-12-29T15:30:29;30.95;;;18.10;;
56299;SDS011;42209;6.376;-10.782;2023-12-29T15:32:57;26.60;;;17.27;;
56299;SDS011;42209;6.376;-10.782;2023-12-29T15:35:26;35.30;;;18.85;;
56299;SDS011;42209;6.376;-10.782;2023-12-29T15:37:54;28.45;;;17.33;;
56299;SDS011;42209;6.376;-10.782;2023-12-29T15:40:23;35.00;;;17.88;;
56299;SDS011;42209;6.376;-10.782;2023-12-29T15:42:51;29.50;;;16.92;;
56299;SDS011;42209;6.376;-10.782;2023-12-29T15:45:20;31.75;;;18.45;;
56299;SDS011;42209;6.376;-10.782;2023-12-29T15:47:50;24.23;;;17.13;;
56299;SDS011;42209;6.376;-10.782;2023-12-29T15:50:18;26.50;;;17.60;;
56299;SDS011;42209;6.376;-10.782;2023-12-29T15:52:46;23.92;;;16.60;;
56299;SDS011;42209;6.376;-10.782;2023-12-29T15:57:43;21.35;;;15.85;;
56299;SDS011;42209;6.376;-10.782;2023-12-29T16:00:12;25.48;;;16.35;;
56299;SDS011;42209;6.376;-10.782;2023-12-29T16:02:41;26.05;;;16.92;;
56299;SDS011;42209;6.376;-10.782;2023-12-29T16:05:09;26.15;;;16.17;;
56299;SDS011;42209;6.376;-10.782;2023-12-29T16:07:37;19.52;;;15.57;;
56299;SDS011;42209;6.376;-10.782;2023-12-29T16:10:06;18.88;;;15.27;;
56299;SDS011;42209;6.376;-10.782;2023-12-29T16:12:35;22.08;;;14.80;;